createdAt,value
2022-10-24T00:01:36.197Z,95502.00
2022-10-24T00:06:36.490Z,95503.47
2022-10-24T00:09:05.021Z,95509.44
2022-10-24T00:11:32.655Z,95510.16
2022-10-24T00:14:02.064Z,95508.03
2022-10-24T00:16:29.937Z,95506.41
2022-10-24T00:18:57.687Z,95501.75
2022-10-24T00:21:25.359Z,95508.88
2022-10-24T00:23:53.247Z,95510.53
2022-10-24T00:26:20.856Z,95527.31
2022-10-24T00:28:48.574Z,95535.25
2022-10-24T00:31:20.051Z,95557.34
2022-10-24T00:33:47.878Z,95574.63
2022-10-24T00:36:18.232Z,95587.25
2022-10-24T00:38:45.904Z,95593.63
2022-10-24T00:41:16.008Z,95604.88
2022-10-24T00:43:43.704Z,95604.69
2022-10-24T00:46:11.881Z,95601.53
2022-10-24T00:48:43.709Z,95590.00
2022-10-24T00:51:17.432Z,95591.47
2022-10-24T00:53:48.589Z,95605.94
2022-10-24T00:56:20.507Z,95597.28
2022-10-24T00:58:51.043Z,95584.56
2022-10-24T01:01:19.061Z,95595.66
2022-10-24T01:03:48.099Z,95590.34
2022-10-24T01:06:30.318Z,95609.97
2022-10-24T01:09:10.184Z,95597.53
2022-10-24T01:11:51.882Z,95589.13
2022-10-24T01:14:31.187Z,95584.47
2022-10-24T01:17:08.470Z,95561.63
2022-10-24T01:20:08.734Z,95558.41
2022-10-24T01:22:46.988Z,95567.41
2022-10-24T01:25:19.386Z,95551.34
2022-10-24T01:28:02.010Z,95547.00
2022-10-24T01:30:35.780Z,95545.69
2022-10-24T01:33:07.717Z,95537.81
2022-10-24T01:35:40.433Z,95538.91
2022-10-24T01:38:14.435Z,95518.19
2022-10-24T01:40:50.698Z,95512.22
2022-10-24T01:43:23.116Z,95523.66
2022-10-24T01:45:58.193Z,95528.59
2022-10-24T01:48:27.266Z,95534.56
2022-10-24T01:50:57.080Z,95522.16
2022-10-24T01:53:28.788Z,95519.53
2022-10-24T01:55:57.447Z,95508.31
2022-10-24T01:58:25.133Z,95509.44
2022-10-24T02:00:59.582Z,95506.38
2022-10-24T02:03:32.297Z,95486.50
2022-10-24T02:06:04.439Z,95491.94
2022-10-24T02:08:35.556Z,95481.81
2022-10-24T02:11:07.433Z,95478.31
2022-10-24T02:13:40.625Z,95434.13
2022-10-24T02:16:10.633Z,95439.09
2022-10-24T02:18:40.550Z,95459.81
2022-10-24T02:21:18.714Z,95442.72
2022-10-24T02:23:52.973Z,95423.31
2022-10-24T02:26:27.841Z,95396.66
2022-10-24T02:28:59.534Z,95401.28
2022-10-24T02:31:34.460Z,95405.94
2022-10-24T02:34:03.143Z,95392.59
2022-10-24T02:36:32.458Z,95392.59
2022-10-24T02:41:58.788Z,95377.03
2022-10-24T02:44:29.194Z,95368.84
2022-10-24T02:47:02.116Z,95368.53
2022-10-24T02:49:29.903Z,95366.44
2022-10-24T02:51:57.854Z,95363.59
2022-10-24T02:54:25.474Z,95369.84
2022-10-24T02:56:56.101Z,95369.53
2022-10-24T02:59:23.723Z,95368.94
2022-10-24T03:01:51.393Z,95355.09
2022-10-24T03:04:20.433Z,95346.59
2022-10-24T03:06:48.074Z,95351.25
2022-10-24T03:09:15.720Z,95350.94
2022-10-24T03:11:43.589Z,95359.13
2022-10-24T03:14:11.236Z,95356.09
2022-10-24T03:16:38.914Z,95360.94
2022-10-24T03:19:08.424Z,95364.13
2022-10-24T03:21:37.558Z,95375.03
2022-10-24T03:24:05.614Z,95356.75
2022-10-24T03:26:33.404Z,95367.97
2022-10-24T03:29:01.290Z,95373.94
2022-10-24T03:31:30.685Z,95359.66
2022-10-24T03:33:58.661Z,95356.00
2022-10-24T03:36:27.061Z,95359.84
2022-10-24T03:38:56.090Z,95363.06
2022-10-24T03:41:23.729Z,95368.72
2022-10-24T03:43:51.468Z,95370.81
2022-10-24T03:46:19.111Z,95369.22
2022-10-24T03:48:46.766Z,95374.69
2022-10-24T03:51:14.440Z,95377.88
2022-10-24T03:53:42.099Z,95380.00
2022-10-24T03:56:11.168Z,95370.88
2022-10-24T03:58:38.814Z,95365.59
2022-10-24T04:01:06.574Z,95375.72
2022-10-24T04:03:34.280Z,95376.53
2022-10-24T04:06:02.106Z,95382.91
2022-10-24T04:08:29.738Z,95383.22
2022-10-24T04:10:57.389Z,95384.47
2022-10-24T04:13:26.462Z,95389.44
2022-10-24T04:15:54.186Z,95400.50
2022-10-24T04:18:21.910Z,95394.72
2022-10-24T04:20:49.548Z,95391.63
2022-10-24T04:23:17.378Z,95401.72
2022-10-24T04:25:45.135Z,95404.97
2022-10-24T04:28:12.931Z,95416.28
2022-10-24T04:33:14.602Z,95439.75
2022-10-24T04:35:48.569Z,95440.50
2022-10-24T04:38:16.258Z,95454.97
2022-10-24T04:40:46.822Z,95475.31
2022-10-24T04:43:14.481Z,95457.63
2022-10-24T04:45:43.469Z,95466.81
2022-10-24T04:48:11.321Z,95459.94
2022-10-24T04:50:40.900Z,95448.63
2022-10-24T04:53:09.293Z,95444.16
2022-10-24T04:58:10.150Z,95433.75
2022-10-24T05:00:37.890Z,95443.06
2022-10-24T05:03:06.909Z,95441.75
2022-10-24T05:05:34.564Z,95439.31
2022-10-24T05:08:02.179Z,95434.38
2022-10-24T05:10:29.851Z,95439.81
2022-10-24T05:12:57.500Z,95436.91
2022-10-24T05:15:25.454Z,95434.97
2022-10-24T05:17:53.082Z,95434.19
2022-10-24T05:20:22.071Z,95437.41
2022-10-24T05:22:49.795Z,95433.56
2022-10-24T05:25:17.690Z,95438.41
2022-10-24T05:27:45.324Z,95445.19
2022-10-24T05:30:13.797Z,95441.63
2022-10-24T05:32:41.657Z,95446.16
2022-10-24T05:35:10.668Z,95459.50
2022-10-24T05:37:39.830Z,95460.78
2022-10-24T05:40:09.946Z,95465.94
2022-10-24T05:42:38.663Z,95462.91
2022-10-24T05:45:07.263Z,95470.28
2022-10-24T05:47:35.011Z,95456.75
2022-10-24T05:50:02.826Z,95460.59
2022-10-24T05:52:30.504Z,95459.00
2022-10-24T05:55:08.003Z,95470.25
2022-10-24T05:57:36.758Z,95488.84
2022-10-24T06:00:06.458Z,95479.84
2022-10-24T06:02:34.261Z,95476.63
2022-10-24T06:05:02.209Z,95469.75
2022-10-24T06:07:30.308Z,95478.09
2022-10-24T06:09:59.449Z,95488.22
2022-10-24T06:12:27.203Z,95489.03
2022-10-24T06:14:57.631Z,95488.22
2022-10-24T06:17:25.386Z,95486.28
2022-10-24T06:19:53.133Z,95485.47
2022-10-24T06:22:23.938Z,95482.59
2022-10-24T06:24:51.771Z,95480.34
2022-10-24T06:27:20.801Z,95473.75
2022-10-24T06:29:48.491Z,95482.75
2022-10-24T06:32:16.123Z,95487.75
2022-10-24T06:34:43.769Z,95490.78
2022-10-24T06:37:11.625Z,95491.75
2022-10-24T06:39:39.329Z,95484.50
2022-10-24T06:42:07.083Z,95483.91
2022-10-24T06:44:36.609Z,95486.28
2022-10-24T06:47:04.375Z,95475.06
2022-10-24T06:49:32.073Z,95458.38
2022-10-24T06:51:59.773Z,95446.03
2022-10-24T06:54:30.134Z,95433.78
2022-10-24T06:56:58.255Z,95451.59
2022-10-24T06:59:26.277Z,95460.78
2022-10-24T07:01:55.372Z,95465.13
2022-10-24T07:04:23.193Z,95465.13
2022-10-24T07:06:50.918Z,95464.53
2022-10-24T07:09:18.832Z,95463.72
2022-10-24T07:11:46.961Z,95454.22
2022-10-24T07:14:14.726Z,95468.19
2022-10-24T07:16:42.364Z,95468.97
2022-10-24T07:19:12.134Z,95470.72
2022-10-24T07:21:39.867Z,95466.25
2022-10-24T07:24:08.643Z,95472.84
2022-10-24T07:26:36.368Z,95485.56
2022-10-24T07:29:04.800Z,95485.06
2022-10-24T07:31:35.610Z,95485.38
2022-10-24T07:34:05.232Z,95491.75
2022-10-24T07:36:34.759Z,95492.94
2022-10-24T07:39:03.037Z,95487.38
2022-10-24T07:41:33.079Z,95498.22
2022-10-24T07:44:02.271Z,95490.34
2022-10-24T07:46:30.895Z,95489.72
2022-10-24T07:48:58.735Z,95496.91
2022-10-24T07:51:28.530Z,95491.97
2022-10-24T07:53:58.043Z,95495.91
2022-10-24T07:56:25.915Z,95502.88
2022-10-24T07:58:56.523Z,95499.16
2022-10-24T08:01:26.779Z,95490.97
2022-10-24T08:03:54.850Z,95502.81
2022-10-24T08:06:25.310Z,95513.72
2022-10-24T08:08:53.098Z,95517.28
2022-10-24T08:11:24.094Z,95525.16
2022-10-24T08:13:53.189Z,95519.56
2022-10-24T08:16:23.031Z,95515.72
2022-10-24T08:18:52.056Z,95510.78
2022-10-24T08:21:21.383Z,95499.72
2022-10-24T08:23:51.175Z,95495.22
2022-10-24T08:26:21.525Z,95490.75
2022-10-24T08:28:51.055Z,95498.22
2022-10-24T08:31:21.166Z,95488.75
2022-10-24T08:33:49.630Z,95497.25
2022-10-24T08:36:21.751Z,95492.16
2022-10-24T08:38:49.450Z,95494.59
2022-10-24T08:41:25.196Z,95501.97
2022-10-24T08:43:54.529Z,95499.06
2022-10-24T08:46:38.155Z,95504.34
2022-10-24T08:49:16.145Z,95502.91
2022-10-24T08:51:48.727Z,95508.44
2022-10-24T08:54:22.690Z,95518.69
2022-10-24T08:56:52.942Z,95517.88
2022-10-24T08:59:22.275Z,95530.63
2022-10-24T09:01:53.736Z,95525.41
2022-10-24T09:04:25.995Z,95530.25
2022-10-24T09:06:56.114Z,95533.91
2022-10-24T09:09:29.694Z,95528.94
2022-10-24T09:12:02.496Z,95535.03
2022-10-24T09:14:33.021Z,95531.06
2022-10-24T09:17:04.209Z,95529.75
2022-10-24T09:19:33.718Z,95517.09
2022-10-24T09:22:02.349Z,95528.72
2022-10-24T09:24:36.601Z,95524.75
2022-10-24T09:27:06.892Z,95528.94
2022-10-24T09:29:35.984Z,95527.63
2022-10-24T09:32:04.553Z,95531.22
2022-10-24T09:34:32.206Z,95543.28
2022-10-24T09:36:59.901Z,95531.22
2022-10-24T09:39:30.935Z,95532.66
2022-10-24T09:41:59.982Z,95528.75
2022-10-24T09:44:41.030Z,95530.06
2022-10-24T09:47:26.150Z,95533.09
2022-10-24T09:49:54.083Z,95536.34
2022-10-24T09:52:24.028Z,95529.13
2022-10-24T09:55:07.767Z,95537.84
2022-10-24T09:57:41.053Z,95532.41
2022-10-24T10:00:22.527Z,95531.16
2022-10-24T10:02:59.520Z,95526.81
2022-10-24T10:05:27.270Z,95537.25
2022-10-24T10:07:54.946Z,95538.16
2022-10-24T10:10:35.038Z,95536.38
2022-10-24T10:13:18.984Z,95545.22
2022-10-24T10:15:53.244Z,95544.19
2022-10-24T10:18:28.029Z,95532.41
2022-10-24T10:21:05.202Z,95529.16
2022-10-24T10:23:36.241Z,95538.03
2022-10-24T10:26:17.428Z,95527.41
2022-10-24T10:28:52.443Z,95526.94
2022-10-24T10:31:27.088Z,95531.41
2022-10-24T10:34:21.362Z,95520.97
2022-10-24T10:37:05.512Z,95522.38
2022-10-24T10:39:48.811Z,95539.28
2022-10-24T10:42:22.625Z,95546.19
2022-10-24T10:45:01.487Z,95551.03
2022-10-24T10:47:43.494Z,95550.22
2022-10-24T10:50:26.394Z,95548.16
2022-10-24T10:53:00.009Z,95544.91
2022-10-24T10:55:36.154Z,95541.50
2022-10-24T10:58:16.877Z,95542.00
2022-10-24T11:00:58.189Z,95540.50
2022-10-24T11:03:38.444Z,95541.75
2022-10-24T11:06:23.295Z,95551.50
2022-10-24T11:09:08.479Z,95548.53
2022-10-24T11:11:42.637Z,95554.41
2022-10-24T11:14:23.485Z,95562.72
2022-10-24T11:16:54.591Z,95569.59
2022-10-24T11:19:30.103Z,95572.78
2022-10-24T11:21:59.585Z,95583.81
2022-10-24T11:24:28.476Z,95585.84
2022-10-24T11:27:03.142Z,95586.34
2022-10-24T11:29:34.394Z,95597.19
2022-10-24T11:32:07.180Z,95589.59
2022-10-24T11:34:47.674Z,95597.59
2022-10-24T11:37:19.959Z,95599.84
2022-10-24T11:39:53.660Z,95590.66
2022-10-24T11:42:28.285Z,95600.06
2022-10-24T11:45:02.385Z,95590.16
2022-10-24T11:47:47.503Z,95586.28
2022-10-24T11:50:26.613Z,95581.56
2022-10-24T11:53:05.014Z,95594.91
2022-10-24T11:55:40.756Z,95599.34
2022-10-24T11:58:17.301Z,95598.88
2022-10-24T12:01:08.843Z,95596.56
2022-10-24T12:04:03.491Z,95605.06
2022-10-24T12:06:52.803Z,95616.88
2022-10-24T12:09:44.707Z,95621.53
2022-10-24T12:12:48.016Z,95623.44
2022-10-24T12:15:37.674Z,95611.72
2022-10-24T12:18:24.127Z,95608.09
2022-10-24T12:20:53.695Z,95614.06
2022-10-24T12:23:27.455Z,95601.84
2022-10-24T12:26:06.857Z,95600.72
2022-10-24T12:28:35.847Z,95597.50
2022-10-24T12:31:25.324Z,95598.41
2022-10-24T12:34:34.401Z,95588.88
2022-10-24T12:37:08.190Z,95572.84
2022-10-24T12:39:39.373Z,95558.06
2022-10-24T12:42:15.518Z,95575.44
2022-10-24T12:44:47.392Z,95595.38
2022-10-24T12:47:36.654Z,95612.84
2022-10-24T12:50:41.997Z,95603.84
2022-10-24T12:53:35.882Z,95608.31
2022-10-24T12:56:22.714Z,95605.78
2022-10-24T12:59:05.529Z,95604.97
2022-10-24T13:01:35.654Z,95604.78
2022-10-24T13:04:40.159Z,95601.84
2022-10-24T13:07:29.366Z,95600.44
2022-10-24T13:10:10.590Z,95603.47
2022-10-24T13:12:59.579Z,95598.31
2022-10-24T13:15:36.883Z,95598.00
2022-10-24T13:18:19.542Z,95594.03
2022-10-24T13:20:50.196Z,95587.31
2022-10-24T13:23:22.158Z,95576.47
2022-10-24T13:25:51.884Z,95581.34
2022-10-24T13:28:40.633Z,95576.78
2022-10-24T13:31:40.786Z,95570.00
2022-10-24T13:34:16.687Z,95558.78
2022-10-24T13:36:46.405Z,95539.69
2022-10-24T13:39:19.415Z,95544.03
2022-10-24T13:41:51.009Z,95568.09
2022-10-24T13:44:27.814Z,95563.75
2022-10-24T13:47:01.818Z,95546.78
2022-10-24T13:49:32.788Z,95540.19
2022-10-24T13:52:07.919Z,95533.19
2022-10-24T13:54:39.064Z,95515.72
2022-10-24T13:57:25.318Z,95527.56
2022-10-24T14:00:00.012Z,95528.47
2022-10-24T14:02:32.415Z,95539.19
2022-10-24T14:05:01.559Z,95572.22
2022-10-24T14:07:31.099Z,95562.94
2022-10-24T14:10:03.665Z,95529.19
2022-10-24T14:12:34.184Z,95525.47
2022-10-24T14:15:03.852Z,95513.53
2022-10-24T14:17:33.641Z,95525.84
2022-10-24T14:20:03.585Z,95539.50
2022-10-24T14:22:39.696Z,95556.47
2022-10-24T14:25:08.055Z,95546.34
2022-10-24T14:27:36.513Z,95536.25
2022-10-24T14:30:06.722Z,95546.06
2022-10-24T14:32:34.441Z,95544.44
2022-10-24T14:35:03.109Z,95549.28
2022-10-24T14:37:34.328Z,95544.13
2022-10-24T14:40:02.739Z,95532.41
2022-10-24T14:42:31.793Z,95513.41
2022-10-24T14:45:00.334Z,95502.50
2022-10-24T14:47:31.929Z,95475.53
2022-10-24T14:49:59.793Z,95462.03
2022-10-24T14:52:32.125Z,95471.31
2022-10-24T14:55:04.392Z,95489.91
2022-10-24T14:57:34.907Z,95511.00
2022-10-24T15:00:08.335Z,95509.69
2022-10-24T15:02:43.183Z,95497.38
2022-10-24T15:05:31.160Z,95506.28
2022-10-24T15:08:22.745Z,95515.75
2022-10-24T15:11:01.661Z,95525.16
2022-10-24T15:13:33.657Z,95516.16
2022-10-24T15:16:06.735Z,95523.31
2022-10-24T15:18:43.538Z,95521.50
2022-10-24T15:21:16.100Z,95531.00
2022-10-24T15:23:47.947Z,95524.03
2022-10-24T15:26:20.799Z,95531.19
2022-10-24T15:28:50.730Z,95526.94
2022-10-24T15:31:20.399Z,95508.59
2022-10-24T15:33:49.880Z,95520.59
2022-10-24T15:36:23.634Z,95524.22
2022-10-24T15:38:56.003Z,95515.00
2022-10-24T15:41:24.014Z,95522.16
2022-10-24T15:43:51.814Z,95522.69
2022-10-24T15:46:19.548Z,95530.16
2022-10-24T15:48:47.215Z,95533.47
2022-10-24T15:51:18.462Z,95539.81
2022-10-24T15:53:47.977Z,95536.28
2022-10-24T15:56:15.723Z,95537.44
2022-10-24T15:58:43.872Z,95532.34
2022-10-24T16:01:23.152Z,95533.72
2022-10-24T16:03:50.951Z,95526.16
2022-10-24T16:06:20.825Z,95529.69
2022-10-24T16:08:48.653Z,95546.63
2022-10-24T16:11:16.616Z,95539.56
2022-10-24T16:13:44.594Z,95537.41
2022-10-24T16:16:12.462Z,95542.44
2022-10-24T16:18:40.151Z,95539.72
2022-10-24T16:21:07.916Z,95556.94
2022-10-24T16:23:36.977Z,95541.66
2022-10-24T16:26:04.704Z,95545.69
2022-10-24T16:28:32.387Z,95546.88
2022-10-24T16:31:00.085Z,95541.34
2022-10-24T16:33:27.779Z,95556.94
2022-10-24T16:35:55.463Z,95549.00
2022-10-24T16:38:23.151Z,95547.91
2022-10-24T16:40:54.013Z,95557.16
2022-10-24T16:43:22.046Z,95553.72
2022-10-24T16:45:57.623Z,95557.69
2022-10-24T16:48:25.225Z,95559.38
2022-10-24T16:50:53.223Z,95550.41
2022-10-24T16:53:21.748Z,95556.72
2022-10-24T16:55:50.479Z,95565.13
2022-10-24T16:58:23.044Z,95557.25
2022-10-24T17:00:50.930Z,95552.00
2022-10-24T17:03:18.684Z,95558.28
2022-10-24T17:05:49.808Z,95553.41
2022-10-24T17:08:17.479Z,95555.25
2022-10-24T17:10:45.260Z,95557.16
2022-10-24T17:13:12.963Z,95546.88
2022-10-24T17:15:42.322Z,95547.16
2022-10-24T17:18:11.510Z,95535.97
2022-10-24T17:20:43.373Z,95540.84
2022-10-24T17:23:12.906Z,95541.66
2022-10-24T17:25:44.065Z,95545.47
2022-10-24T17:28:16.793Z,95549.81
2022-10-24T17:30:48.795Z,95562.69
2022-10-24T17:33:16.747Z,95575.41
2022-10-24T17:35:48.545Z,95573.22
2022-10-24T17:38:33.190Z,95579.75
2022-10-24T17:41:14.020Z,95575.94
2022-10-24T17:43:42.157Z,95574.81
2022-10-24T17:46:14.158Z,95573.22
2022-10-24T17:48:41.989Z,95570.19
2022-10-24T17:51:12.286Z,95574.03
2022-10-24T17:53:39.978Z,95559.50
2022-10-24T17:56:08.581Z,95559.41
2022-10-24T17:58:36.404Z,95568.09
2022-10-24T18:01:04.155Z,95570.31
2022-10-24T18:03:33.893Z,95566.84
2022-10-24T18:06:03.226Z,95559.72
2022-10-24T18:08:34.223Z,95565.97
2022-10-24T18:11:02.461Z,95568.41
2022-10-24T18:13:30.450Z,95570.03
2022-10-24T18:15:58.122Z,95560.53
2022-10-24T18:18:25.989Z,95564.06
2022-10-24T18:21:05.874Z,95563.47
2022-10-24T18:23:35.241Z,95559.72
2022-10-24T18:26:07.568Z,95565.44
2022-10-24T18:28:37.960Z,95561.91
2022-10-24T18:31:09.795Z,95551.31
2022-10-24T18:33:37.719Z,95560.88
2022-10-24T18:36:08.978Z,95557.06
2022-10-24T18:38:37.322Z,95555.44
2022-10-24T18:41:05.478Z,95553.25
2022-10-24T18:43:33.478Z,95551.94
2022-10-24T18:46:01.904Z,95556.47
2022-10-24T18:48:30.278Z,95552.72
2022-10-24T18:50:58.377Z,95555.44
2022-10-24T18:53:34.081Z,95556.78
2022-10-24T18:56:02.023Z,95553.53
2022-10-24T18:58:29.805Z,95555.97
2022-10-24T19:00:59.939Z,95561.69
2022-10-24T19:03:33.605Z,95563.53
2022-10-24T19:06:11.673Z,95546.91
2022-10-24T19:08:41.078Z,95546.63
2022-10-24T19:13:42.982Z,95544.47
2022-10-24T19:16:16.334Z,95536.00
2022-10-24T19:18:49.223Z,95532.25
2022-10-24T19:21:19.569Z,95524.72
2022-10-24T19:23:49.313Z,95519.28
2022-10-24T19:26:17.211Z,95521.47
2022-10-24T19:28:45.310Z,95521.78
2022-10-24T19:31:14.844Z,95530.25
2022-10-24T19:33:42.563Z,95529.13
2022-10-24T19:36:14.327Z,95528.31
2022-10-24T19:38:44.793Z,95530.00
2022-10-24T19:41:14.037Z,95535.69
2022-10-24T19:43:41.727Z,95537.59
2022-10-24T19:46:24.925Z,95535.16
2022-10-24T19:48:53.364Z,95550.91
2022-10-24T19:51:22.995Z,95541.72
2022-10-24T19:53:52.536Z,95534.13
2022-10-24T19:56:25.267Z,95525.22
2022-10-24T19:58:53.920Z,95523.84
2022-10-24T20:01:23.714Z,95535.25
2022-10-24T20:03:52.412Z,95528.53
2022-10-24T20:06:20.367Z,95535.75
2022-10-24T20:08:49.972Z,95538.34
2022-10-24T20:11:20.323Z,95541.06
2022-10-24T20:13:50.625Z,95548.69
2022-10-24T20:16:18.934Z,95547.31
2022-10-24T20:18:47.689Z,95554.03
2022-10-24T20:21:18.628Z,95554.03
2022-10-24T20:23:47.852Z,95555.88
2022-10-24T20:26:17.543Z,95547.72
2022-10-24T20:28:47.226Z,95557.75
2022-10-24T20:31:24.750Z,95547.44
2022-10-24T20:33:53.304Z,95539.78
2022-10-24T20:36:23.438Z,95537.94
2022-10-24T20:38:51.253Z,95535.63
2022-10-24T20:41:18.931Z,95539.44
2022-10-24T20:43:46.719Z,95545.53
2022-10-24T20:46:14.821Z,95545.81
2022-10-24T20:48:43.964Z,95552.88
2022-10-24T20:51:13.482Z,95557.59
2022-10-24T20:53:42.492Z,95556.22
2022-10-24T20:56:13.446Z,95563.78
2022-10-24T20:58:42.783Z,95578.94
2022-10-24T21:01:13.413Z,95582.69
2022-10-24T21:03:43.324Z,95585.66
2022-10-24T21:06:16.859Z,95581.91
2022-10-24T21:08:48.448Z,95581.63
2022-10-24T21:11:17.414Z,95574.34
2022-10-24T21:13:46.492Z,95580.44
2022-10-24T21:16:17.527Z,95579.19
2022-10-24T21:18:46.605Z,95587.88
2022-10-24T21:21:16.169Z,95598.75
2022-10-24T21:23:50.721Z,95588.50
2022-10-24T21:26:19.343Z,95583.00
2022-10-24T21:28:47.039Z,95595.56
2022-10-24T21:31:16.403Z,95589.03
2022-10-24T21:33:44.581Z,95594.69
2022-10-24T21:36:15.433Z,95598.22
2022-10-24T21:38:43.690Z,95605.00
2022-10-24T21:41:11.630Z,95600.31
2022-10-24T21:43:41.361Z,95604.94
2022-10-24T21:46:11.012Z,95602.53
2022-10-24T21:48:40.344Z,95608.53
2022-10-24T21:51:10.889Z,95614.22
2022-10-24T21:53:41.121Z,95619.38
2022-10-24T21:56:10.874Z,95627.44
2022-10-24T21:58:39.489Z,95630.91
2022-10-24T22:01:11.762Z,95625.47
2022-10-24T22:03:40.125Z,95631.94
2022-10-24T22:06:08.541Z,95622.16
2022-10-24T22:08:36.151Z,95617.53
2022-10-24T22:11:06.742Z,95619.16
2022-10-24T22:13:35.837Z,95624.38
2022-10-24T22:16:04.347Z,95624.59
2022-10-24T22:18:33.803Z,95622.16
2022-10-24T22:21:02.983Z,95629.66
2022-10-24T22:23:31.249Z,95628.34
2022-10-24T22:26:01.121Z,95642.25
2022-10-24T22:28:30.121Z,95641.50
2022-10-24T22:30:58.310Z,95644.66
2022-10-24T22:33:34.136Z,95652.63
2022-10-24T22:36:07.592Z,95649.44
2022-10-24T22:38:38.214Z,95661.84
2022-10-24T22:41:06.394Z,95673.97
2022-10-24T22:43:36.171Z,95692.16
2022-10-24T22:46:12.419Z,95694.00
2022-10-24T22:48:47.811Z,95692.97
2022-10-24T22:51:17.317Z,95707.72
2022-10-24T22:53:45.672Z,95716.53
2022-10-24T22:56:17.124Z,95712.47
2022-10-24T23:04:58.244Z,95736.94
2022-10-24T23:07:28.146Z,95733.41
2022-10-24T23:09:57.236Z,95742.38
2022-10-24T23:12:25.421Z,95745.06
2022-10-24T23:14:54.323Z,95716.88
2022-10-24T23:17:24.752Z,95733.25
2022-10-24T23:19:55.225Z,95740.38
2022-10-24T23:22:25.379Z,95734.41
2022-10-24T23:24:55.058Z,95734.44
2022-10-24T23:27:33.778Z,95749.09
2022-10-24T23:30:02.571Z,95753.44
2022-10-24T23:32:35.297Z,95744.50
2022-10-24T23:35:05.361Z,95755.34
2022-10-24T23:37:35.473Z,95761.56
2022-10-24T23:40:13.305Z,95757.50
2022-10-24T23:42:41.819Z,95757.28
2022-10-24T23:45:13.275Z,95755.94
2022-10-24T23:47:58.929Z,95761.34
2022-10-24T23:50:35.266Z,95758.94
2022-10-24T23:53:24.726Z,95762.22
2022-10-24T23:55:53.117Z,95762.22
2022-10-24T23:58:21.163Z,95757.88
